sensor_id;sensor_type;location;lat;lon;timestamp;pressure;altitude;pressure_sealevel;temperature;humidity
38227;BME280;24026;49.446;8.576;2022-12-24T00:00:48;99976.13;;;13.53;68.17
38227;BME280;24026;49.446;8.576;2022-12-24T00:03:08;99974.53;;;13.52;68.23
38227;BME280;24026;49.446;8.576;2022-12-24T00:05:29;99974.78;;;13.51;68.06
38227;BME280;24026;49.446;8.576;2022-12-24T00:07:49;99976.41;;;13.52;68.11
38227;BME280;24026;49.446;8.576;2022-12-24T00:10:10;99984.69;;;13.50;68.27
38227;BME280;24026;49.446;8.576;2022-12-24T00:12:31;99983.06;;;13.49;68.25
38227;BME280;24026;49.446;8.576;2022-12-24T00:14:51;99988.41;;;13.49;68.14
38227;BME280;24026;49.446;8.576;2022-12-24T00:17:11;99984.69;;;13.50;68.13
38227;BME280;24026;49.446;8.576;2022-12-24T00:19:32;99986.56;;;13.50;68.09
38227;BME280;24026;49.446;8.576;2022-12-24T00:21:52;99987.34;;;13.50;68.17
38227;BME280;24026;49.446;8.576;2022-12-24T00:24:12;99985.22;;;13.47;68.16
38227;BME280;24026;49.446;8.576;2022-12-24T00:26:33;99986.56;;;13.50;68.10
38227;BME280;24026;49.446;8.576;2022-12-24T00:28:54;99996.16;;;13.51;68.25
38227;BME280;24026;49.446;8.576;2022-12-24T00:31:17;99997.22;;;13.50;67.94
38227;BME280;24026;49.446;8.576;2022-12-24T00:33:37;99998.03;;;13.50;67.86
38227;BME280;24026;49.446;8.576;2022-12-24T00:35:58;100016.44;;;13.52;67.94
38227;BME280;24026;49.446;8.576;2022-12-24T00:38:18;100007.34;;;13.48;67.64
38227;BME280;24026;49.446;8.576;2022-12-24T00:40:39;100011.63;;;13.49;67.86
38227;BME280;24026;49.446;8.576;2022-12-24T00:42:59;100018.59;;;13.50;67.70
38227;BME280;24026;49.446;8.576;2022-12-24T00:45:19;100021.53;;;13.48;67.81
38227;BME280;24026;49.446;8.576;2022-12-24T00:47:40;100025.78;;;13.49;67.94
38227;BME280;24026;49.446;8.576;2022-12-24T00:50:00;100030.84;;;13.51;67.52
38227;BME280;24026;49.446;8.576;2022-12-24T00:52:21;100039.94;;;13.50;67.53
38227;BME280;24026;49.446;8.576;2022-12-24T00:54:41;100038.34;;;13.49;67.34
38227;BME280;24026;49.446;8.576;2022-12-24T00:57:02;100037.53;;;13.48;67.53
38227;BME280;24026;49.446;8.576;2022-12-24T00:59:22;100030.84;;;13.46;67.49
38227;BME280;24026;49.446;8.576;2022-12-24T01:01:43;100032.47;;;13.47;67.54
38227;BME280;24026;49.446;8.576;2022-12-24T01:04:03;100044.72;;;13.48;67.22
38227;BME280;24026;49.446;8.576;2022-12-24T01:06:43;100044.47;;;13.44;67.33
38227;BME280;24026;49.446;8.576;2022-12-24T01:09:03;100052.22;;;13.46;67.43
38227;BME280;24026;49.446;8.576;2022-12-24T01:11:24;100055.69;;;13.46;67.19
38227;BME280;24026;49.446;8.576;2022-12-24T01:13:44;100063.69;;;13.46;67.03
38227;BME280;24026;49.446;8.576;2022-12-24T01:16:13;100052.47;;;13.44;66.92
38227;BME280;24026;49.446;8.576;2022-12-24T01:18:34;100062.91;;;13.46;67.14
38227;BME280;24026;49.446;8.576;2022-12-24T01:21:00;100053.00;;;13.46;66.83
38227;BME280;24026;49.446;8.576;2022-12-24T01:23:20;100059.97;;;13.42;67.15
38227;BME280;24026;49.446;8.576;2022-12-24T01:25:41;100070.91;;;13.41;67.15
38227;BME280;24026;49.446;8.576;2022-12-24T01:28:01;100069.03;;;13.46;66.83
38227;BME280;24026;49.446;8.576;2022-12-24T01:30:22;100077.34;;;13.45;66.78
38227;BME280;24026;49.446;8.576;2022-12-24T01:32:42;100088.81;;;13.45;66.81
38227;BME280;24026;49.446;8.576;2022-12-24T01:35:03;100089.31;;;13.47;66.58
38227;BME280;24026;49.446;8.576;2022-12-24T01:37:23;100090.69;;;13.45;66.66
38227;BME280;24026;49.446;8.576;2022-12-24T01:39:43;100104.81;;;13.45;66.59
38227;BME280;24026;49.446;8.576;2022-12-24T01:42:22;100110.16;;;13.40;66.68
38227;BME280;24026;49.446;8.576;2022-12-24T01:47:56;100115.50;;;13.40;66.59
38227;BME280;24026;49.446;8.576;2022-12-24T01:50:16;100134.72;;;13.42;66.66
38227;BME280;24026;49.446;8.576;2022-12-24T01:52:38;100134.72;;;13.42;66.60
38227;BME280;24026;49.446;8.576;2022-12-24T01:55:04;100131.00;;;13.43;66.46
38227;BME280;24026;49.446;8.576;2022-12-24T01:57:29;100129.91;;;13.39;66.53
38227;BME280;24026;49.446;8.576;2022-12-24T01:59:53;100127.75;;;13.41;66.35
38227;BME280;24026;49.446;8.576;2022-12-24T02:02:15;100135.78;;;13.41;66.17
38227;BME280;24026;49.446;8.576;2022-12-24T02:04:40;100140.56;;;13.39;66.21
38227;BME280;24026;49.446;8.576;2022-12-24T02:07:02;100144.34;;;13.38;66.21
38227;BME280;24026;49.446;8.576;2022-12-24T02:09:23;100153.41;;;13.37;66.26
38227;BME280;24026;49.446;8.576;2022-12-24T02:11:44;100155.81;;;13.39;66.20
38227;BME280;24026;49.446;8.576;2022-12-24T02:14:05;100168.34;;;13.38;66.01
38227;BME280;24026;49.446;8.576;2022-12-24T02:16:37;100164.06;;;13.37;66.01
38227;BME280;24026;49.446;8.576;2022-12-24T02:24:31;100149.63;;;13.33;65.75
38227;BME280;24026;49.446;8.576;2022-12-24T02:32:24;100148.31;;;13.36;65.92
38227;BME280;24026;49.446;8.576;2022-12-24T02:37:15;100144.31;;;13.33;65.70
38227;BME280;24026;49.446;8.576;2022-12-24T02:39:47;100141.06;;;13.31;65.58
38227;BME280;24026;49.446;8.576;2022-12-24T02:42:10;100152.31;;;13.33;65.70
38227;BME280;24026;49.446;8.576;2022-12-24T02:44:45;100148.06;;;13.32;65.39
38227;BME280;24026;49.446;8.576;2022-12-24T02:47:07;100144.31;;;13.33;65.63
38227;BME280;24026;49.446;8.576;2022-12-24T02:49:29;100145.66;;;13.36;65.82
38227;BME280;24026;49.446;8.576;2022-12-24T02:51:49;100151.00;;;13.36;65.46
38227;BME280;24026;49.446;8.576;2022-12-24T02:54:10;100139.78;;;13.33;65.37
38227;BME280;24026;49.446;8.576;2022-12-24T03:10:39;100167.75;;;13.31;65.18
38227;BME280;24026;49.446;8.576;2022-12-24T03:13:07;100174.19;;;13.30;65.26
38227;BME280;24026;49.446;8.576;2022-12-24T03:15:30;100171.25;;;13.31;65.35
38227;BME280;24026;49.446;8.576;2022-12-24T03:17:54;100179.25;;;13.31;65.05
38227;BME280;24026;49.446;8.576;2022-12-24T03:20:24;100173.66;;;13.33;65.09
38227;BME280;24026;49.446;8.576;2022-12-24T03:22:45;100175.53;;;13.32;65.04
38227;BME280;24026;49.446;8.576;2022-12-24T03:25:06;100177.91;;;13.29;65.09
38227;BME280;24026;49.446;8.576;2022-12-24T03:27:28;100164.56;;;13.29;65.00
38227;BME280;24026;49.446;8.576;2022-12-24T03:29:49;100169.91;;;13.29;64.94
38227;BME280;24026;49.446;8.576;2022-12-24T03:32:10;100172.31;;;13.30;65.04
38227;BME280;24026;49.446;8.576;2022-12-24T03:34:30;100183.50;;;13.27;64.93
38227;BME280;24026;49.446;8.576;2022-12-24T03:36:51;100193.41;;;13.27;64.89
38227;BME280;24026;49.446;8.576;2022-12-24T03:39:11;100181.63;;;13.28;65.10
38227;BME280;24026;49.446;8.576;2022-12-24T03:41:32;100183.78;;;13.26;64.98
38227;BME280;24026;49.446;8.576;2022-12-24T03:43:52;100176.56;;;13.26;64.75
38227;BME280;24026;49.446;8.576;2022-12-24T03:46:12;100173.63;;;13.23;65.04
38227;BME280;24026;49.446;8.576;2022-12-24T03:48:34;100178.69;;;13.24;65.12
38227;BME280;24026;49.446;8.576;2022-12-24T03:50:54;100170.16;;;13.22;65.12
38227;BME280;24026;49.446;8.576;2022-12-24T03:53:15;100174.19;;;13.25;64.97
38227;BME280;24026;49.446;8.576;2022-12-24T03:55:37;100176.28;;;13.23;64.90
38227;BME280;24026;49.446;8.576;2022-12-24T03:57:57;100184.84;;;13.25;64.96
38227;BME280;24026;49.446;8.576;2022-12-24T04:00:18;100199.50;;;13.22;64.90
38227;BME280;24026;49.446;8.576;2022-12-24T04:02:39;100197.09;;;13.21;64.98
38227;BME280;24026;49.446;8.576;2022-12-24T04:04:59;100190.72;;;13.22;65.05
38227;BME280;24026;49.446;8.576;2022-12-24T04:07:20;100186.97;;;13.23;64.90
38227;BME280;24026;49.446;8.576;2022-12-24T04:09:40;100192.81;;;13.20;65.05
38227;BME280;24026;49.446;8.576;2022-12-24T04:12:01;100196.84;;;13.22;64.93
38227;BME280;24026;49.446;8.576;2022-12-24T04:14:21;100195.78;;;13.18;64.97
38227;BME280;24026;49.446;8.576;2022-12-24T04:16:41;100194.69;;;13.19;64.97
38227;BME280;24026;49.446;8.576;2022-12-24T04:19:02;100189.38;;;13.19;65.07
38227;BME280;24026;49.446;8.576;2022-12-24T04:21:22;100196.31;;;13.20;64.96
38227;BME280;24026;49.446;8.576;2022-12-24T04:23:43;100204.06;;;13.22;65.05
38227;BME280;24026;49.446;8.576;2022-12-24T04:26:06;100211.50;;;13.20;64.83
38227;BME280;24026;49.446;8.576;2022-12-24T04:28:28;100209.91;;;13.19;64.86
38227;BME280;24026;49.446;8.576;2022-12-24T04:30:49;100212.84;;;13.22;64.73
38227;BME280;24026;49.446;8.576;2022-12-24T04:33:09;100219.25;;;13.21;64.83
38227;BME280;24026;49.446;8.576;2022-12-24T04:35:30;100223.00;;;13.20;64.91
38227;BME280;24026;49.446;8.576;2022-12-24T04:37:50;100220.06;;;13.16;65.12
38227;BME280;24026;49.446;8.576;2022-12-24T04:40:11;100216.56;;;13.16;64.94
38227;BME280;24026;49.446;8.576;2022-12-24T04:42:31;100228.06;;;13.16;64.97
38227;BME280;24026;49.446;8.576;2022-12-24T04:44:52;100225.94;;;13.19;64.92
38227;BME280;24026;49.446;8.576;2022-12-24T04:47:12;100227.25;;;13.21;64.85
38227;BME280;24026;49.446;8.576;2022-12-24T04:49:32;100220.59;;;13.19;64.95
38227;BME280;24026;49.446;8.576;2022-12-24T04:51:53;100222.47;;;13.18;64.93
38227;BME280;24026;49.446;8.576;2022-12-24T04:54:13;100223.00;;;13.15;65.17
38227;BME280;24026;49.446;8.576;2022-12-24T04:56:34;100240.84;;;13.14;65.14
38227;BME280;24026;49.446;8.576;2022-12-24T04:58:55;100231.78;;;13.15;65.04
38227;BME280;24026;49.446;8.576;2022-12-24T05:01:18;100223.25;;;13.19;64.97
38227;BME280;24026;49.446;8.576;2022-12-24T05:03:40;100222.19;;;13.20;64.94
38227;BME280;24026;49.446;8.576;2022-12-24T05:06:05;100226.44;;;13.15;64.98
38227;BME280;24026;49.446;8.576;2022-12-24T05:08:26;100216.03;;;13.14;65.34
38227;BME280;24026;49.446;8.576;2022-12-24T05:10:54;100211.75;;;13.13;65.15
38227;BME280;24026;49.446;8.576;2022-12-24T05:13:14;100216.81;;;13.14;65.13
38227;BME280;24026;49.446;8.576;2022-12-24T05:15:35;100218.97;;;13.18;65.02
38227;BME280;24026;49.446;8.576;2022-12-24T05:17:55;100226.72;;;13.19;65.10
38227;BME280;24026;49.446;8.576;2022-12-24T05:20:17;100231.78;;;13.15;65.33
38227;BME280;24026;49.446;8.576;2022-12-24T05:22:37;100240.31;;;13.12;65.34
38227;BME280;24026;49.446;8.576;2022-12-24T05:25:16;100241.66;;;13.15;65.40
38227;BME280;24026;49.446;8.576;2022-12-24T05:27:55;100249.66;;;13.15;65.34
38227;BME280;24026;49.446;8.576;2022-12-24T05:30:16;100242.19;;;13.12;65.48
38227;BME280;24026;49.446;8.576;2022-12-24T05:32:36;100242.72;;;13.14;65.42
38227;BME280;24026;49.446;8.576;2022-12-24T05:34:56;100233.38;;;13.11;65.38
38227;BME280;24026;49.446;8.576;2022-12-24T05:37:17;100237.63;;;13.12;65.43
38227;BME280;24026;49.446;8.576;2022-12-24T05:39:37;100221.09;;;13.15;65.33
38227;BME280;24026;49.446;8.576;2022-12-24T05:41:57;100227.50;;;13.14;65.24
38227;BME280;24026;49.446;8.576;2022-12-24T05:44:18;100249.09;;;13.13;65.41
38227;BME280;24026;49.446;8.576;2022-12-24T05:46:39;100251.50;;;13.14;65.31
38227;BME280;24026;49.446;8.576;2022-12-24T05:48:59;100261.13;;;13.10;65.48
38227;BME280;24026;49.446;8.576;2022-12-24T05:51:20;100250.97;;;13.12;65.43
38227;BME280;24026;49.446;8.576;2022-12-24T05:53:41;100247.53;;;13.12;65.44
38227;BME280;24026;49.446;8.576;2022-12-24T05:56:10;100261.91;;;13.11;65.31
38227;BME280;24026;49.446;8.576;2022-12-24T05:58:31;100267.53;;;13.14;65.30
38227;BME280;24026;49.446;8.576;2022-12-24T06:00:52;100271.03;;;13.15;65.21
38227;BME280;24026;49.446;8.576;2022-12-24T06:03:13;100271.81;;;13.15;65.37
38227;BME280;24026;49.446;8.576;2022-12-24T06:05:33;100274.75;;;13.14;65.28
38227;BME280;24026;49.446;8.576;2022-12-24T06:07:54;100277.41;;;13.14;65.28
38227;BME280;24026;49.446;8.576;2022-12-24T06:10:14;100276.63;;;13.13;65.38
38227;BME280;24026;49.446;8.576;2022-12-24T06:12:35;100277.41;;;13.14;65.46
38227;BME280;24026;49.446;8.576;2022-12-24T06:14:55;100278.47;;;13.13;65.54
38227;BME280;24026;49.446;8.576;2022-12-24T06:17:19;100271.53;;;13.12;65.30
38227;BME280;24026;49.446;8.576;2022-12-24T06:19:39;100277.66;;;13.12;65.17
38227;BME280;24026;49.446;8.576;2022-12-24T06:22:00;100283.25;;;13.11;65.38
38227;BME280;24026;49.446;8.576;2022-12-24T06:24:20;100279.25;;;13.08;65.54
38227;BME280;24026;49.446;8.576;2022-12-24T06:26:41;100293.13;;;13.05;65.54
38227;BME280;24026;49.446;8.576;2022-12-24T06:29:01;100289.69;;;13.10;65.60
38227;BME280;24026;49.446;8.576;2022-12-24T06:31:22;100292.59;;;13.08;65.52
38227;BME280;24026;49.446;8.576;2022-12-24T06:33:43;100290.47;;;13.10;65.63
38227;BME280;24026;49.446;8.576;2022-12-24T06:36:09;100296.84;;;13.09;65.29
38227;BME280;24026;49.446;8.576;2022-12-24T06:38:29;100293.66;;;13.07;65.62
38227;BME280;24026;49.446;8.576;2022-12-24T06:40:50;100295.00;;;13.10;65.48
38227;BME280;24026;49.446;8.576;2022-12-24T06:43:12;100292.09;;;13.11;65.39
38227;BME280;24026;49.446;8.576;2022-12-24T06:45:32;100297.09;;;13.03;65.63
38227;BME280;24026;49.446;8.576;2022-12-24T06:47:53;100304.84;;;13.04;65.57
38227;BME280;24026;49.446;8.576;2022-12-24T06:50:13;100304.31;;;13.07;65.58
38227;BME280;24026;49.446;8.576;2022-12-24T06:52:33;100306.19;;;13.07;65.46
38227;BME280;24026;49.446;8.576;2022-12-24T06:54:54;100312.34;;;13.07;65.40
38227;BME280;24026;49.446;8.576;2022-12-24T06:57:14;100310.19;;;13.04;65.60
38227;BME280;24026;49.446;8.576;2022-12-24T06:59:35;100311.78;;;13.05;65.56
38227;BME280;24026;49.446;8.576;2022-12-24T07:01:55;100323.00;;;13.07;65.49
38227;BME280;24026;49.446;8.576;2022-12-24T07:04:16;100319.81;;;13.10;65.67
38227;BME280;24026;49.446;8.576;2022-12-24T07:06:36;100337.13;;;13.03;65.73
38227;BME280;24026;49.446;8.576;2022-12-24T07:08:57;100338.72;;;13.04;65.57
38227;BME280;24026;49.446;8.576;2022-12-24T07:11:17;100339.00;;;13.02;65.46
38227;BME280;24026;49.446;8.576;2022-12-24T07:13:38;100344.88;;;13.04;65.59
38227;BME280;24026;49.446;8.576;2022-12-24T07:16:00;100351.56;;;13.07;65.33
38227;BME280;24026;49.446;8.576;2022-12-24T07:18:20;100348.91;;;13.07;65.40
38227;BME280;24026;49.446;8.576;2022-12-24T07:20:47;100345.97;;;13.08;65.33
38227;BME280;24026;49.446;8.576;2022-12-24T07:23:07;100343.50;;;12.96;65.60
38227;BME280;24026;49.446;8.576;2022-12-24T07:25:28;100345.09;;;12.97;65.70
38227;BME280;24026;49.446;8.576;2022-12-24T07:27:48;100347.50;;;12.99;65.53
38227;BME280;24026;49.446;8.576;2022-12-24T07:30:09;100351.78;;;13.00;65.70
38227;BME280;24026;49.446;8.576;2022-12-24T07:32:30;100352.03;;;12.98;65.71
38227;BME280;24026;49.446;8.576;2022-12-24T07:34:50;100348.88;;;13.02;65.50
38227;BME280;24026;49.446;8.576;2022-12-24T07:37:11;100347.50;;;12.99;65.75
38227;BME280;24026;49.446;8.576;2022-12-24T07:39:31;100350.97;;;13.00;65.30
38227;BME280;24026;49.446;8.576;2022-12-24T07:41:52;100349.91;;;13.01;65.61
38227;BME280;24026;49.446;8.576;2022-12-24T07:44:14;100349.66;;;13.02;65.42
38227;BME280;24026;49.446;8.576;2022-12-24T07:46:35;100357.63;;;12.97;65.64
38227;BME280;24026;49.446;8.576;2022-12-24T07:48:55;100360.06;;;12.98;65.39
38227;BME280;24026;49.446;8.576;2022-12-24T07:51:16;100362.47;;;13.00;65.35
38227;BME280;24026;49.446;8.576;2022-12-24T07:53:36;100362.19;;;12.96;65.65
38227;BME280;24026;49.446;8.576;2022-12-24T07:55:57;100362.97;;;12.97;65.65
38227;BME280;24026;49.446;8.576;2022-12-24T07:58:17;100360.56;;;12.95;65.67
38227;BME280;24026;49.446;8.576;2022-12-24T08:00:38;100363.75;;;12.97;65.42
38227;BME280;24026;49.446;8.576;2022-12-24T08:02:58;100369.94;;;13.03;65.39
38227;BME280;24026;49.446;8.576;2022-12-24T08:05:19;100371.00;;;13.02;65.29
38227;BME280;24026;49.446;8.576;2022-12-24T08:07:39;100374.22;;;13.04;65.17
38227;BME280;24026;49.446;8.576;2022-12-24T08:09:59;100377.97;;;13.03;65.31
38227;BME280;24026;49.446;8.576;2022-12-24T08:12:20;100380.63;;;13.03;65.28
38227;BME280;24026;49.446;8.576;2022-12-24T08:14:40;100395.03;;;13.02;65.31
38227;BME280;24026;49.446;8.576;2022-12-24T08:17:01;100407.31;;;13.03;65.20
38227;BME280;24026;49.446;8.576;2022-12-24T08:19:22;100406.22;;;13.04;65.29
38227;BME280;24026;49.446;8.576;2022-12-24T08:21:42;100400.88;;;13.04;65.26
38227;BME280;24026;49.446;8.576;2022-12-24T08:24:03;100408.38;;;13.07;65.00
38227;BME280;24026;49.446;8.576;2022-12-24T08:26:24;100409.44;;;13.06;65.07
38227;BME280;24026;49.446;8.576;2022-12-24T08:28:44;100394.75;;;13.04;65.04
38227;BME280;24026;49.446;8.576;2022-12-24T08:31:05;100407.84;;;13.05;65.35
38227;BME280;24026;49.446;8.576;2022-12-24T08:33:25;100401.72;;;13.05;65.19
38227;BME280;24026;49.446;8.576;2022-12-24T08:35:51;100395.56;;;13.04;65.19
38227;BME280;24026;49.446;8.576;2022-12-24T08:38:11;100384.88;;;13.04;65.17
38227;BME280;24026;49.446;8.576;2022-12-24T08:40:32;100394.22;;;13.02;65.27
38227;BME280;24026;49.446;8.576;2022-12-24T08:42:52;100394.47;;;13.00;65.21
38227;BME280;24026;49.446;8.576;2022-12-24T08:45:12;100397.94;;;13.01;65.08
38227;BME280;24026;49.446;8.576;2022-12-24T08:47:33;100397.41;;;12.98;65.16
38227;BME280;24026;49.446;8.576;2022-12-24T08:49:53;100395.56;;;13.04;64.98
38227;BME280;24026;49.446;8.576;2022-12-24T08:52:14;100393.44;;;13.06;65.11
38227;BME280;24026;49.446;8.576;2022-12-24T08:54:34;100395.03;;;13.07;65.00
38227;BME280;24026;49.446;8.576;2022-12-24T08:56:54;100400.66;;;13.11;64.79
38227;BME280;24026;49.446;8.576;2022-12-24T08:59:15;100406.81;;;13.11;64.80
38227;BME280;24026;49.446;8.576;2022-12-24T09:01:35;100402.81;;;13.14;64.63
38227;BME280;24026;49.446;8.576;2022-12-24T09:03:56;100414.53;;;13.13;64.82
38227;BME280;24026;49.446;8.576;2022-12-24T09:06:16;100421.50;;;13.14;64.79
38227;BME280;24026;49.446;8.576;2022-12-24T09:08:37;100423.38;;;13.13;64.79
38227;BME280;24026;49.446;8.576;2022-12-24T09:11:15;100430.56;;;13.13;64.64
38227;BME280;24026;49.446;8.576;2022-12-24T09:13:36;100433.78;;;13.15;64.57
38227;BME280;24026;49.446;8.576;2022-12-24T09:15:57;100427.13;;;13.18;64.62
38227;BME280;24026;49.446;8.576;2022-12-24T09:18:17;100431.13;;;13.15;64.60
38227;BME280;24026;49.446;8.576;2022-12-24T09:20:38;100439.69;;;13.17;64.55
38227;BME280;24026;49.446;8.576;2022-12-24T09:22:58;100450.63;;;13.21;64.45
38227;BME280;24026;49.446;8.576;2022-12-24T09:25:18;100445.28;;;13.21;64.55
38227;BME280;24026;49.446;8.576;2022-12-24T09:27:39;100444.25;;;13.22;64.40
38227;BME280;24026;49.446;8.576;2022-12-24T09:29:59;100457.59;;;13.22;64.30
38227;BME280;24026;49.446;8.576;2022-12-24T09:32:20;100454.91;;;13.22;64.64
38227;BME280;24026;49.446;8.576;2022-12-24T09:34:40;100458.41;;;13.27;64.50
38227;BME280;24026;49.446;8.576;2022-12-24T09:37:00;100470.13;;;13.26;64.30
38227;BME280;24026;49.446;8.576;2022-12-24T09:39:22;100473.38;;;13.28;64.41
38227;BME280;24026;49.446;8.576;2022-12-24T09:42:18;100476.31;;;13.27;64.16
38227;BME280;24026;49.446;8.576;2022-12-24T09:49:46;100498.00;;;13.36;63.92
38227;BME280;24026;49.446;8.576;2022-12-24T09:52:11;100495.88;;;13.38;63.90
38227;BME280;24026;49.446;8.576;2022-12-24T09:54:38;100502.84;;;13.39;63.88
38227;BME280;24026;49.446;8.576;2022-12-24T09:57:06;100505.25;;;13.40;63.78
38227;BME280;24026;49.446;8.576;2022-12-24T09:59:43;100496.69;;;13.38;63.75
38227;BME280;24026;49.446;8.576;2022-12-24T10:02:09;100506.84;;;13.41;63.54
38227;BME280;24026;49.446;8.576;2022-12-24T10:04:30;100502.06;;;13.43;63.67
38227;BME280;24026;49.446;8.576;2022-12-24T10:15:55;100507.91;;;13.40;63.82
38227;BME280;24026;49.446;8.576;2022-12-24T10:18:44;100499.91;;;13.40;63.79
38227;BME280;24026;49.446;8.576;2022-12-24T10:21:44;100510.09;;;13.43;63.58
38227;BME280;24026;49.446;8.576;2022-12-24T10:24:19;100518.63;;;13.45;63.60
38227;BME280;24026;49.446;8.576;2022-12-24T10:29:12;100524.50;;;13.47;63.38
38227;BME280;24026;49.446;8.576;2022-12-24T10:31:40;100520.78;;;13.48;63.51
38227;BME280;24026;49.446;8.576;2022-12-24T10:34:18;100521.84;;;13.47;63.49
38227;BME280;24026;49.446;8.576;2022-12-24T10:36:40;100527.47;;;13.51;63.61
38227;BME280;24026;49.446;8.576;2022-12-24T10:39:01;100525.34;;;13.53;63.45
38227;BME280;24026;49.446;8.576;2022-12-24T10:41:23;100520.00;;;13.53;63.55
38227;BME280;24026;49.446;8.576;2022-12-24T10:43:45;100516.81;;;13.56;63.40
38227;BME280;24026;49.446;8.576;2022-12-24T10:48:42;100511.72;;;13.55;63.35
38227;BME280;24026;49.446;8.576;2022-12-24T10:53:43;100499.47;;;13.53;63.48
38227;BME280;24026;49.446;8.576;2022-12-24T10:56:08;100502.66;;;13.56;63.52
38227;BME280;24026;49.446;8.576;2022-12-24T10:58:30;100505.88;;;13.58;63.32
38227;BME280;24026;49.446;8.576;2022-12-24T11:00:52;100501.91;;;13.60;63.34
38227;BME280;24026;49.446;8.576;2022-12-24T11:03:32;100506.16;;;13.61;63.28
38227;BME280;24026;49.446;8.576;2022-12-24T11:06:18;100502.94;;;13.54;63.29
38227;BME280;24026;49.446;8.576;2022-12-24T11:08:43;100504.56;;;13.60;63.20
38227;BME280;24026;49.446;8.576;2022-12-24T11:11:06;100505.13;;;13.62;63.15
38227;BME280;24026;49.446;8.576;2022-12-24T11:18:22;100490.41;;;13.60;63.19
38227;BME280;24026;49.446;8.576;2022-12-24T11:20:48;100498.41;;;13.60;63.24
38227;BME280;24026;49.446;8.576;2022-12-24T11:23:15;100494.69;;;13.61;63.06
38227;BME280;24026;49.446;8.576;2022-12-24T11:25:38;100491.75;;;13.62;63.26
38227;BME280;24026;49.446;8.576;2022-12-24T11:28:11;100504.06;;;13.63;63.02
38227;BME280;24026;49.446;8.576;2022-12-24T11:30:32;100501.66;;;13.67;63.09
38227;BME280;24026;49.446;8.576;2022-12-24T11:35:25;100491.53;;;13.69;62.95
38227;BME280;24026;49.446;8.576;2022-12-24T11:40:22;100497.16;;;13.73;62.86
38227;BME280;24026;49.446;8.576;2022-12-24T11:42:43;100500.06;;;13.71;63.03
38227;BME280;24026;49.446;8.576;2022-12-24T11:45:17;100500.06;;;13.71;62.71
38227;BME280;24026;49.446;8.576;2022-12-24T11:47:39;100505.94;;;13.73;62.78
38227;BME280;24026;49.446;8.576;2022-12-24T11:50:31;100509.97;;;13.70;62.83
38227;BME280;24026;49.446;8.576;2022-12-24T11:58:15;100495.28;;;13.73;62.82
38227;BME280;24026;49.446;8.576;2022-12-24T12:00:38;100484.06;;;13.76;62.81
38227;BME280;24026;49.446;8.576;2022-12-24T12:03:01;100490.25;;;13.77;62.73
38227;BME280;24026;49.446;8.576;2022-12-24T12:05:26;100494.50;;;13.78;62.89
38227;BME280;24026;49.446;8.576;2022-12-24T12:07:55;100485.44;;;13.79;62.74
38227;BME280;24026;49.446;8.576;2022-12-24T12:10:23;100484.91;;;13.77;62.73
38227;BME280;24026;49.446;8.576;2022-12-24T12:12:49;100490.53;;;13.80;62.46
38227;BME280;24026;49.446;8.576;2022-12-24T12:15:15;100484.34;;;13.80;62.54
38227;BME280;24026;49.446;8.576;2022-12-24T12:17:48;100489.97;;;13.78;62.52
38227;BME280;24026;49.446;8.576;2022-12-24T12:20:15;100488.09;;;13.79;62.75
38227;BME280;24026;49.446;8.576;2022-12-24T12:22:47;100487.31;;;13.78;62.58
38227;BME280;24026;49.446;8.576;2022-12-24T12:25:25;100496.13;;;13.79;62.60
38227;BME280;24026;49.446;8.576;2022-12-24T12:27:50;100492.69;;;13.83;62.47
38227;BME280;24026;49.446;8.576;2022-12-24T12:30:15;100491.06;;;13.82;62.51
38227;BME280;24026;49.446;8.576;2022-12-24T12:33:18;100491.56;;;13.79;62.62
38227;BME280;24026;49.446;8.576;2022-12-24T12:35:42;100494.00;;;13.86;62.53
38227;BME280;24026;49.446;8.576;2022-12-24T12:38:08;100494.00;;;13.86;62.58
38227;BME280;24026;49.446;8.576;2022-12-24T12:41:09;100497.44;;;13.81;62.60
38227;BME280;24026;49.446;8.576;2022-12-24T12:44:09;100507.09;;;13.82;62.48
38227;BME280;24026;49.446;8.576;2022-12-24T12:46:45;100504.44;;;13.87;62.47
38227;BME280;24026;49.446;8.576;2022-12-24T12:54:34;100510.88;;;13.92;62.34
38227;BME280;24026;49.446;8.576;2022-12-24T12:57:07;100513.56;;;13.92;62.37
38227;BME280;24026;49.446;8.576;2022-12-24T12:59:37;100512.72;;;13.91;62.20
38227;BME280;24026;49.446;8.576;2022-12-24T13:20:23;100530.34;;;13.82;62.56
38227;BME280;24026;49.446;8.576;2022-12-24T13:23:20;100532.44;;;13.80;62.67
38227;BME280;24026;49.446;8.576;2022-12-24T13:25:46;100534.59;;;13.83;62.81
38227;BME280;24026;49.446;8.576;2022-12-24T13:30:44;100511.63;;;13.82;62.69
38227;BME280;24026;49.446;8.576;2022-12-24T13:33:09;100527.41;;;13.83;62.84
38227;BME280;24026;49.446;8.576;2022-12-24T13:35:33;100537.25;;;13.83;62.86
38227;BME280;24026;49.446;8.576;2022-12-24T13:40:45;100528.44;;;13.82;62.88
38227;BME280;24026;49.446;8.576;2022-12-24T13:43:07;100534.59;;;13.83;62.61
38227;BME280;24026;49.446;8.576;2022-12-24T13:47:50;100536.19;;;13.79;63.01
38227;BME280;24026;49.446;8.576;2022-12-24T13:50:22;100546.34;;;13.77;62.87
38227;BME280;24026;49.446;8.576;2022-12-24T13:52:50;100545.25;;;13.78;62.96
38227;BME280;24026;49.446;8.576;2022-12-24T13:55:15;100537.25;;;13.78;62.99
38227;BME280;24026;49.446;8.576;2022-12-24T13:57:42;100536.44;;;13.77;63.06
38227;BME280;24026;49.446;8.576;2022-12-24T14:05:17;100541.22;;;13.70;63.32
38227;BME280;24026;49.446;8.576;2022-12-24T14:07:46;100539.34;;;13.70;63.25
38227;BME280;24026;49.446;8.576;2022-12-24T14:10:19;100537.72;;;13.69;63.40
38227;BME280;24026;49.446;8.576;2022-12-24T14:12:48;100540.41;;;13.69;63.61
38227;BME280;24026;49.446;8.576;2022-12-24T14:15:44;100540.13;;;13.66;63.77